sensor_id;sensor_type;location;lat;lon;timestamp;P1;durP1;ratioP1;P2;durP2;ratioP2
1877;SDS011;939;51.426;6.972;2023-06-10T00:00:48;9.00;;;4.30;;
1877;SDS011;939;51.426;6.972;2023-06-10T00:03:20;9.50;;;5.50;;
1877;SDS011;939;51.426;6.972;2023-06-10T00:05:49;4.20;;;3.80;;
1877;SDS011;939;51.426;6.972;2023-06-10T00:08:17;6.67;;;5.23;;
1877;SDS011;939;51.426;6.972;2023-06-10T00:10:44;7.63;;;5.00;;
1877;SDS011;939;51.426;6.972;2023-06-10T00:13:11;5.53;;;4.43;;
1877;SDS011;939;51.426;6.972;2023-06-10T00:15:38;5.00;;;4.47;;
1877;SDS011;939;51.426;6.972;2023-06-10T00:18:05;6.47;;;4.93;;
1877;SDS011;939;51.426;6.972;2023-06-10T00:20:35;5.13;;;4.63;;
1877;SDS011;939;51.426;6.972;2023-06-10T00:23:09;10.67;;;5.30;;
1877;SDS011;939;51.426;6.972;2023-06-10T00:25:36;5.40;;;4.67;;
1877;SDS011;939;51.426;6.972;2023-06-10T00:28:03;6.60;;;4.60;;
1877;SDS011;939;51.426;6.972;2023-06-10T00:30:30;5.97;;;4.60;;
1877;SDS011;939;51.426;6.972;2023-06-10T00:32:57;10.00;;;6.60;;
1877;SDS011;939;51.426;6.972;2023-06-10T00:35:25;5.17;;;4.67;;
1877;SDS011;939;51.426;6.972;2023-06-10T00:37:51;4.20;;;3.50;;
1877;SDS011;939;51.426;6.972;2023-06-10T00:40:20;3.80;;;3.40;;
1877;SDS011;939;51.426;6.972;2023-06-10T00:42:47;5.30;;;4.80;;
1877;SDS011;939;51.426;6.972;2023-06-10T00:45:13;5.00;;;4.20;;
1877;SDS011;939;51.426;6.972;2023-06-10T00:47:40;7.67;;;5.10;;
1877;SDS011;939;51.426;6.972;2023-06-10T00:50:07;7.40;;;4.63;;
1877;SDS011;939;51.426;6.972;2023-06-10T00:52:34;7.50;;;4.23;;
1877;SDS011;939;51.426;6.972;2023-06-10T00:55:02;8.60;;;5.10;;
1877;SDS011;939;51.426;6.972;2023-06-10T00:57:31;5.80;;;4.00;;
1877;SDS011;939;51.426;6.972;2023-06-10T00:59:57;4.40;;;3.93;;
1877;SDS011;939;51.426;6.972;2023-06-10T01:02:24;6.57;;;4.47;;
1877;SDS011;939;51.426;6.972;2023-06-10T01:04:51;6.10;;;5.50;;
1877;SDS011;939;51.426;6.972;2023-06-10T01:07:20;7.03;;;5.30;;
1877;SDS011;939;51.426;6.972;2023-06-10T01:09:53;4.63;;;4.23;;
1877;SDS011;939;51.426;6.972;2023-06-10T01:12:27;9.23;;;4.80;;
1877;SDS011;939;51.426;6.972;2023-06-10T01:15:00;6.00;;;5.40;;
1877;SDS011;939;51.426;6.972;2023-06-10T01:17:28;5.07;;;4.50;;
1877;SDS011;939;51.426;6.972;2023-06-10T01:19:55;5.07;;;4.40;;
1877;SDS011;939;51.426;6.972;2023-06-10T01:22:24;9.00;;;4.70;;
1877;SDS011;939;51.426;6.972;2023-06-10T01:24:53;6.23;;;5.23;;
1877;SDS011;939;51.426;6.972;2023-06-10T01:27:23;5.20;;;4.70;;
1877;SDS011;939;51.426;6.972;2023-06-10T01:29:58;7.00;;;4.50;;
1877;SDS011;939;51.426;6.972;2023-06-10T01:32:29;6.77;;;4.70;;
1877;SDS011;939;51.426;6.972;2023-06-10T01:35:01;6.33;;;4.90;;
1877;SDS011;939;51.426;6.972;2023-06-10T01:37:31;6.97;;;5.37;;
1877;SDS011;939;51.426;6.972;2023-06-10T01:39:59;5.87;;;4.90;;
1877;SDS011;939;51.426;6.972;2023-06-10T01:42:30;5.07;;;4.40;;
1877;SDS011;939;51.426;6.972;2023-06-10T01:44:58;5.67;;;4.30;;
1877;SDS011;939;51.426;6.972;2023-06-10T01:47:25;15.07;;;5.73;;
1877;SDS011;939;51.426;6.972;2023-06-10T01:49:53;5.80;;;5.27;;
1877;SDS011;939;51.426;6.972;2023-06-10T01:52:20;8.20;;;4.93;;
1877;SDS011;939;51.426;6.972;2023-06-10T01:54:48;7.40;;;5.47;;
1877;SDS011;939;51.426;6.972;2023-06-10T01:57:15;11.20;;;5.17;;
1877;SDS011;939;51.426;6.972;2023-06-10T01:59:43;6.77;;;5.27;;
1877;SDS011;939;51.426;6.972;2023-06-10T02:02:11;4.60;;;4.10;;
1877;SDS011;939;51.426;6.972;2023-06-10T02:04:38;5.53;;;4.80;;
1877;SDS011;939;51.426;6.972;2023-06-10T02:07:05;7.53;;;4.70;;
1877;SDS011;939;51.426;6.972;2023-06-10T02:09:32;6.53;;;5.07;;
1877;SDS011;939;51.426;6.972;2023-06-10T02:12:01;6.70;;;5.40;;
1877;SDS011;939;51.426;6.972;2023-06-10T02:14:29;6.03;;;5.40;;
1877;SDS011;939;51.426;6.972;2023-06-10T02:16:55;7.27;;;5.50;;
1877;SDS011;939;51.426;6.972;2023-06-10T02:19:22;10.80;;;5.37;;
1877;SDS011;939;51.426;6.972;2023-06-10T02:21:50;6.53;;;4.60;;
1877;SDS011;939;51.426;6.972;2023-06-10T02:24:17;7.33;;;5.00;;
1877;SDS011;939;51.426;6.972;2023-06-10T02:26:46;7.23;;;6.10;;
1877;SDS011;939;51.426;6.972;2023-06-10T02:29:14;5.87;;;4.67;;
1877;SDS011;939;51.426;6.972;2023-06-10T02:31:43;6.87;;;5.10;;
1877;SDS011;939;51.426;6.972;2023-06-10T02:34:10;5.10;;;4.43;;
1877;SDS011;939;51.426;6.972;2023-06-10T02:36:37;5.60;;;4.83;;
1877;SDS011;939;51.426;6.972;2023-06-10T02:39:03;5.93;;;4.30;;
1877;SDS011;939;51.426;6.972;2023-06-10T02:41:30;5.80;;;4.93;;
1877;SDS011;939;51.426;6.972;2023-06-10T02:43:57;6.23;;;5.63;;
1877;SDS011;939;51.426;6.972;2023-06-10T02:46:26;6.00;;;4.80;;
1877;SDS011;939;51.426;6.972;2023-06-10T02:48:53;7.73;;;5.90;;
1877;SDS011;939;51.426;6.972;2023-06-10T02:51:22;8.53;;;5.70;;
1877;SDS011;939;51.426;6.972;2023-06-10T02:53:49;11.03;;;6.03;;
1877;SDS011;939;51.426;6.972;2023-06-10T02:56:16;9.13;;;6.10;;
1877;SDS011;939;51.426;6.972;2023-06-10T02:58:43;8.13;;;5.20;;
1877;SDS011;939;51.426;6.972;2023-06-10T03:01:10;6.87;;;5.40;;
1877;SDS011;939;51.426;6.972;2023-06-10T03:03:39;7.47;;;6.23;;
1877;SDS011;939;51.426;6.972;2023-06-10T03:06:07;6.63;;;5.53;;
1877;SDS011;939;51.426;6.972;2023-06-10T03:08:35;13.33;;;5.93;;
1877;SDS011;939;51.426;6.972;2023-06-10T03:11:02;8.17;;;5.67;;
1877;SDS011;939;51.426;6.972;2023-06-10T03:13:29;5.90;;;5.00;;
1877;SDS011;939;51.426;6.972;2023-06-10T03:15:55;6.53;;;4.80;;
1877;SDS011;939;51.426;6.972;2023-06-10T03:18:26;7.23;;;4.70;;
1877;SDS011;939;51.426;6.972;2023-06-10T03:20:54;8.00;;;5.37;;
1877;SDS011;939;51.426;6.972;2023-06-10T03:23:21;9.17;;;5.83;;
1877;SDS011;939;51.426;6.972;2023-06-10T03:25:49;6.83;;;6.13;;
1877;SDS011;939;51.426;6.972;2023-06-10T03:28:15;8.50;;;6.23;;
1877;SDS011;939;51.426;6.972;2023-06-10T03:30:42;7.13;;;5.73;;
1877;SDS011;939;51.426;6.972;2023-06-10T03:33:17;7.27;;;5.47;;
1877;SDS011;939;51.426;6.972;2023-06-10T03:38:29;7.00;;;5.77;;
1877;SDS011;939;51.426;6.972;2023-06-10T03:40:56;4.57;;;4.00;;
1877;SDS011;939;51.426;6.972;2023-06-10T03:43:23;8.13;;;6.13;;
1877;SDS011;939;51.426;6.972;2023-06-10T03:45:50;6.70;;;4.50;;
1877;SDS011;939;51.426;6.972;2023-06-10T03:48:20;7.93;;;5.53;;
1877;SDS011;939;51.426;6.972;2023-06-10T03:50:47;10.10;;;6.20;;
1877;SDS011;939;51.426;6.972;2023-06-10T03:53:17;7.60;;;5.23;;
1877;SDS011;939;51.426;6.972;2023-06-10T03:55:43;6.97;;;5.87;;
1877;SDS011;939;51.426;6.972;2023-06-10T03:58:11;6.43;;;4.80;;
1877;SDS011;939;51.426;6.972;2023-06-10T04:00:39;5.13;;;4.63;;
1877;SDS011;939;51.426;6.972;2023-06-10T04:03:07;6.40;;;5.30;;
1877;SDS011;939;51.426;6.972;2023-06-10T04:05:39;8.77;;;6.30;;
1877;SDS011;939;51.426;6.972;2023-06-10T04:08:06;10.20;;;5.20;;
1877;SDS011;939;51.426;6.972;2023-06-10T04:10:35;6.37;;;4.90;;
1877;SDS011;939;51.426;6.972;2023-06-10T04:13:02;8.97;;;5.83;;
1877;SDS011;939;51.426;6.972;2023-06-10T04:15:29;13.60;;;5.37;;
1877;SDS011;939;51.426;6.972;2023-06-10T04:17:57;10.33;;;7.13;;
1877;SDS011;939;51.426;6.972;2023-06-10T04:20:24;8.03;;;6.00;;
1877;SDS011;939;51.426;6.972;2023-06-10T04:22:51;5.90;;;4.87;;
1877;SDS011;939;51.426;6.972;2023-06-10T04:25:18;5.60;;;5.10;;
1877;SDS011;939;51.426;6.972;2023-06-10T04:27:46;7.90;;;6.70;;
1877;SDS011;939;51.426;6.972;2023-06-10T04:30:13;7.33;;;6.30;;
1877;SDS011;939;51.426;6.972;2023-06-10T04:32:41;7.37;;;5.73;;
1877;SDS011;939;51.426;6.972;2023-06-10T04:35:10;7.50;;;5.17;;
1877;SDS011;939;51.426;6.972;2023-06-10T04:37:37;4.80;;;4.20;;
1877;SDS011;939;51.426;6.972;2023-06-10T04:40:05;7.40;;;6.00;;
1877;SDS011;939;51.426;6.972;2023-06-10T04:42:33;6.70;;;5.63;;
1877;SDS011;939;51.426;6.972;2023-06-10T04:45:01;6.57;;;5.43;;
1877;SDS011;939;51.426;6.972;2023-06-10T04:47:28;6.40;;;4.97;;
1877;SDS011;939;51.426;6.972;2023-06-10T04:49:58;6.00;;;4.90;;
1877;SDS011;939;51.426;6.972;2023-06-10T04:52:24;10.47;;;5.63;;
1877;SDS011;939;51.426;6.972;2023-06-10T04:54:51;5.23;;;4.70;;
1877;SDS011;939;51.426;6.972;2023-06-10T04:57:18;8.30;;;6.77;;
1877;SDS011;939;51.426;6.972;2023-06-10T04:59:45;9.77;;;6.13;;
1877;SDS011;939;51.426;6.972;2023-06-10T05:02:13;8.30;;;5.60;;
1877;SDS011;939;51.426;6.972;2023-06-10T05:04:40;11.13;;;5.97;;
1877;SDS011;939;51.426;6.972;2023-06-10T05:07:07;5.80;;;4.40;;
1877;SDS011;939;51.426;6.972;2023-06-10T05:09:34;9.10;;;5.93;;
1877;SDS011;939;51.426;6.972;2023-06-10T05:12:01;7.70;;;6.07;;
1877;SDS011;939;51.426;6.972;2023-06-10T05:14:28;8.50;;;6.67;;
1877;SDS011;939;51.426;6.972;2023-06-10T05:16:55;7.90;;;5.27;;
1877;SDS011;939;51.426;6.972;2023-06-10T05:19:23;9.83;;;7.00;;
1877;SDS011;939;51.426;6.972;2023-06-10T05:21:50;9.47;;;6.00;;
1877;SDS011;939;51.426;6.972;2023-06-10T05:24:17;10.33;;;7.77;;
1877;SDS011;939;51.426;6.972;2023-06-10T05:26:44;6.83;;;4.70;;
1877;SDS011;939;51.426;6.972;2023-06-10T05:29:12;9.60;;;6.20;;
1877;SDS011;939;51.426;6.972;2023-06-10T05:31:40;4.63;;;3.70;;
1877;SDS011;939;51.426;6.972;2023-06-10T05:34:07;7.87;;;5.17;;
1877;SDS011;939;51.426;6.972;2023-06-10T05:36:35;6.20;;;4.70;;
1877;SDS011;939;51.426;6.972;2023-06-10T05:39:02;9.53;;;7.77;;
1877;SDS011;939;51.426;6.972;2023-06-10T05:41:29;7.43;;;5.70;;
1877;SDS011;939;51.426;6.972;2023-06-10T05:43:56;8.60;;;6.20;;
1877;SDS011;939;51.426;6.972;2023-06-10T05:46:23;9.93;;;7.27;;
1877;SDS011;939;51.426;6.972;2023-06-10T05:48:49;15.03;;;7.07;;
1877;SDS011;939;51.426;6.972;2023-06-10T05:51:16;5.10;;;4.30;;
1877;SDS011;939;51.426;6.972;2023-06-10T05:53:44;8.17;;;5.20;;
1877;SDS011;939;51.426;6.972;2023-06-10T05:56:12;6.87;;;4.53;;
1877;SDS011;939;51.426;6.972;2023-06-10T05:58:39;6.77;;;5.10;;
1877;SDS011;939;51.426;6.972;2023-06-10T06:01:06;12.73;;;5.00;;
1877;SDS011;939;51.426;6.972;2023-06-10T06:03:33;7.10;;;5.70;;
1877;SDS011;939;51.426;6.972;2023-06-10T06:05:59;12.00;;;4.90;;
1877;SDS011;939;51.426;6.972;2023-06-10T06:08:26;3.97;;;2.93;;
1877;SDS011;939;51.426;6.972;2023-06-10T06:10:54;7.13;;;4.87;;
1877;SDS011;939;51.426;6.972;2023-06-10T06:13:21;4.70;;;3.67;;
1877;SDS011;939;51.426;6.972;2023-06-10T06:15:49;4.50;;;3.90;;
1877;SDS011;939;51.426;6.972;2023-06-10T06:18:16;4.57;;;4.03;;
1877;SDS011;939;51.426;6.972;2023-06-10T06:20:43;5.50;;;4.93;;
1877;SDS011;939;51.426;6.972;2023-06-10T06:23:10;3.90;;;2.80;;
1877;SDS011;939;51.426;6.972;2023-06-10T06:25:37;4.90;;;4.33;;
1877;SDS011;939;51.426;6.972;2023-06-10T06:28:05;4.07;;;3.67;;
1877;SDS011;939;51.426;6.972;2023-06-10T06:30:32;4.40;;;3.63;;
1877;SDS011;939;51.426;6.972;2023-06-10T06:32:59;6.70;;;4.70;;
1877;SDS011;939;51.426;6.972;2023-06-10T06:35:26;4.03;;;3.43;;
1877;SDS011;939;51.426;6.972;2023-06-10T06:37:53;5.00;;;3.53;;
1877;SDS011;939;51.426;6.972;2023-06-10T06:40:19;5.37;;;4.43;;
1877;SDS011;939;51.426;6.972;2023-06-10T06:42:46;6.50;;;3.93;;
1877;SDS011;939;51.426;6.972;2023-06-10T06:45:14;3.87;;;2.83;;
1877;SDS011;939;51.426;6.972;2023-06-10T06:47:41;4.60;;;3.70;;
1877;SDS011;939;51.426;6.972;2023-06-10T06:50:09;8.17;;;5.20;;
1877;SDS011;939;51.426;6.972;2023-06-10T06:52:36;5.70;;;4.67;;
1877;SDS011;939;51.426;6.972;2023-06-10T06:55:03;4.50;;;3.47;;
1877;SDS011;939;51.426;6.972;2023-06-10T06:57:30;3.93;;;2.50;;
1877;SDS011;939;51.426;6.972;2023-06-10T06:59:57;7.93;;;3.43;;
1877;SDS011;939;51.426;6.972;2023-06-10T07:02:25;3.83;;;2.83;;
1877;SDS011;939;51.426;6.972;2023-06-10T07:04:52;4.63;;;3.70;;
1877;SDS011;939;51.426;6.972;2023-06-10T07:07:21;4.57;;;3.07;;
1877;SDS011;939;51.426;6.972;2023-06-10T07:09:47;3.50;;;2.50;;
1877;SDS011;939;51.426;6.972;2023-06-10T07:12:14;3.53;;;2.43;;
1877;SDS011;939;51.426;6.972;2023-06-10T07:14:42;6.20;;;4.20;;
1877;SDS011;939;51.426;6.972;2023-06-10T07:17:09;4.27;;;3.80;;
1877;SDS011;939;51.426;6.972;2023-06-10T07:19:38;4.20;;;3.43;;
1877;SDS011;939;51.426;6.972;2023-06-10T07:22:05;2.27;;;1.87;;
1877;SDS011;939;51.426;6.972;2023-06-10T07:24:32;3.27;;;2.97;;
1877;SDS011;939;51.426;6.972;2023-06-10T07:26:59;3.57;;;2.33;;
1877;SDS011;939;51.426;6.972;2023-06-10T07:29:26;3.83;;;2.23;;
1877;SDS011;939;51.426;6.972;2023-06-10T07:31:52;4.70;;;3.93;;
1877;SDS011;939;51.426;6.972;2023-06-10T07:34:19;3.53;;;2.73;;
1877;SDS011;939;51.426;6.972;2023-06-10T07:36:48;5.50;;;4.80;;
1877;SDS011;939;51.426;6.972;2023-06-10T07:39:14;5.60;;;3.80;;
1877;SDS011;939;51.426;6.972;2023-06-10T07:41:41;3.87;;;2.73;;
1877;SDS011;939;51.426;6.972;2023-06-10T07:44:08;3.80;;;2.77;;
1877;SDS011;939;51.426;6.972;2023-06-10T07:46:35;4.17;;;3.30;;
1877;SDS011;939;51.426;6.972;2023-06-10T07:49:02;4.70;;;2.80;;
1877;SDS011;939;51.426;6.972;2023-06-10T07:51:29;4.50;;;3.20;;
1877;SDS011;939;51.426;6.972;2023-06-10T07:53:57;2.80;;;2.37;;
1877;SDS011;939;51.426;6.972;2023-06-10T07:56:24;3.83;;;2.60;;
1877;SDS011;939;51.426;6.972;2023-06-10T07:58:51;3.00;;;2.57;;
1877;SDS011;939;51.426;6.972;2023-06-10T08:01:18;5.20;;;3.80;;
1877;SDS011;939;51.426;6.972;2023-06-10T08:03:45;4.70;;;3.10;;
1877;SDS011;939;51.426;6.972;2023-06-10T08:06:12;3.37;;;2.83;;
1877;SDS011;939;51.426;6.972;2023-06-10T08:08:39;3.70;;;2.77;;
1877;SDS011;939;51.426;6.972;2023-06-10T08:11:10;3.00;;;2.57;;
1877;SDS011;939;51.426;6.972;2023-06-10T08:13:37;2.37;;;2.10;;
1877;SDS011;939;51.426;6.972;2023-06-10T08:16:05;4.90;;;3.30;;
1877;SDS011;939;51.426;6.972;2023-06-10T08:18:32;4.30;;;3.13;;
1877;SDS011;939;51.426;6.972;2023-06-10T08:20:59;4.37;;;3.23;;
1877;SDS011;939;51.426;6.972;2023-06-10T08:23:26;5.87;;;3.57;;
1877;SDS011;939;51.426;6.972;2023-06-10T08:25:53;3.47;;;3.13;;
1877;SDS011;939;51.426;6.972;2023-06-10T08:28:21;6.33;;;2.67;;
1877;SDS011;939;51.426;6.972;2023-06-10T08:30:48;5.30;;;2.67;;
1877;SDS011;939;51.426;6.972;2023-06-10T08:33:15;2.77;;;2.30;;
1877;SDS011;939;51.426;6.972;2023-06-10T14:36:31;3.33;;;3.00;;
1877;SDS011;939;51.426;6.972;2023-06-10T14:38:58;3.60;;;2.70;;
1877;SDS011;939;51.426;6.972;2023-06-10T14:41:25;4.17;;;3.10;;
1877;SDS011;939;51.426;6.972;2023-06-10T14:43:52;3.27;;;2.67;;
1877;SDS011;939;51.426;6.972;2023-06-10T14:46:19;4.73;;;4.23;;
1877;SDS011;939;51.426;6.972;2023-06-10T14:48:46;4.90;;;4.27;;
1877;SDS011;939;51.426;6.972;2023-06-10T14:51:13;4.40;;;3.03;;
1877;SDS011;939;51.426;6.972;2023-06-10T14:53:41;4.33;;;3.30;;
1877;SDS011;939;51.426;6.972;2023-06-10T14:56:08;3.37;;;3.07;;
1877;SDS011;939;51.426;6.972;2023-06-10T14:58:34;5.03;;;4.60;;
1877;SDS011;939;51.426;6.972;2023-06-10T15:01:01;3.70;;;3.30;;
1877;SDS011;939;51.426;6.972;2023-06-10T15:03:28;6.47;;;3.60;;
1877;SDS011;939;51.426;6.972;2023-06-10T15:05:55;3.43;;;2.97;;
1877;SDS011;939;51.426;6.972;2023-06-10T15:08:23;3.90;;;3.50;;
1877;SDS011;939;51.426;6.972;2023-06-10T15:10:51;8.20;;;4.37;;
1877;SDS011;939;51.426;6.972;2023-06-10T15:13:18;5.20;;;4.50;;
1877;SDS011;939;51.426;6.972;2023-06-10T15:15:45;3.83;;;3.20;;
1877;SDS011;939;51.426;6.972;2023-06-10T15:18:11;4.07;;;3.10;;
1877;SDS011;939;51.426;6.972;2023-06-10T15:20:38;3.83;;;2.97;;
1877;SDS011;939;51.426;6.972;2023-06-10T15:23:05;5.33;;;4.20;;
1877;SDS011;939;51.426;6.972;2023-06-10T15:25:33;4.37;;;3.13;;
1877;SDS011;939;51.426;6.972;2023-06-10T15:28:01;4.17;;;3.33;;
1877;SDS011;939;51.426;6.972;2023-06-10T15:30:28;6.20;;;2.87;;
1877;SDS011;939;51.426;6.972;2023-06-10T15:32:55;4.40;;;3.13;;
1877;SDS011;939;51.426;6.972;2023-06-10T15:35:22;4.20;;;3.80;;
1877;SDS011;939;51.426;6.972;2023-06-10T15:37:51;3.30;;;3.00;;
1877;SDS011;939;51.426;6.972;2023-06-10T15:40:18;4.83;;;4.00;;
1877;SDS011;939;51.426;6.972;2023-06-10T15:42:45;3.90;;;3.50;;
1877;SDS011;939;51.426;6.972;2023-06-10T15:45:13;5.53;;;3.60;;
1877;SDS011;939;51.426;6.972;2023-06-10T15:47:40;7.17;;;3.53;;
1877;SDS011;939;51.426;6.972;2023-06-10T15:50:07;3.43;;;2.70;;
1877;SDS011;939;51.426;6.972;2023-06-10T15:52:35;5.23;;;3.60;;
1877;SDS011;939;51.426;6.972;2023-06-10T15:55:02;5.20;;;3.47;;
1877;SDS011;939;51.426;6.972;2023-06-10T15:57:29;9.13;;;3.97;;
1877;SDS011;939;51.426;6.972;2023-06-10T15:59:56;4.73;;;3.77;;
1877;SDS011;939;51.426;6.972;2023-06-10T16:02:24;4.27;;;3.03;;
1877;SDS011;939;51.426;6.972;2023-06-10T16:07:42;4.40;;;3.60;;
1877;SDS011;939;51.426;6.972;2023-06-10T16:10:09;4.90;;;3.10;;
1877;SDS011;939;51.426;6.972;2023-06-10T16:12:36;4.37;;;3.90;;
1877;SDS011;939;51.426;6.972;2023-06-10T16:15:06;4.17;;;3.40;;
1877;SDS011;939;51.426;6.972;2023-06-10T16:17:36;5.00;;;3.53;;
1877;SDS011;939;51.426;6.972;2023-06-10T16:20:04;4.60;;;4.20;;
1877;SDS011;939;51.426;6.972;2023-06-10T16:22:31;7.43;;;4.53;;
1877;SDS011;939;51.426;6.972;2023-06-10T16:24:58;3.87;;;3.53;;
1877;SDS011;939;51.426;6.972;2023-06-10T16:27:25;4.13;;;3.67;;
1877;SDS011;939;51.426;6.972;2023-06-10T16:29:52;3.13;;;2.33;;
1877;SDS011;939;51.426;6.972;2023-06-10T16:32:19;3.73;;;3.13;;
1877;SDS011;939;51.426;6.972;2023-06-10T16:34:47;8.60;;;4.47;;
1877;SDS011;939;51.426;6.972;2023-06-10T16:37:14;6.83;;;3.40;;
1877;SDS011;939;51.426;6.972;2023-06-10T16:39:41;4.73;;;3.10;;
1877;SDS011;939;51.426;6.972;2023-06-10T16:42:07;4.97;;;3.70;;
1877;SDS011;939;51.426;6.972;2023-06-10T16:44:37;2.83;;;2.53;;
1877;SDS011;939;51.426;6.972;2023-06-10T16:47:04;4.00;;;3.37;;
1877;SDS011;939;51.426;6.972;2023-06-10T16:49:31;6.23;;;3.80;;
1877;SDS011;939;51.426;6.972;2023-06-10T16:52:00;3.93;;;3.23;;
1877;SDS011;939;51.426;6.972;2023-06-10T16:54:27;6.27;;;4.27;;
1877;SDS011;939;51.426;6.972;2023-06-10T16:56:54;5.70;;;4.50;;
1877;SDS011;939;51.426;6.972;2023-06-10T16:59:21;5.33;;;4.07;;
1877;SDS011;939;51.426;6.972;2023-06-10T17:01:48;4.20;;;3.30;;
1877;SDS011;939;51.426;6.972;2023-06-10T17:04:14;15.03;;;4.50;;
1877;SDS011;939;51.426;6.972;2023-06-10T17:06:41;10.93;;;5.40;;
1877;SDS011;939;51.426;6.972;2023-06-10T17:09:09;5.33;;;3.83;;
1877;SDS011;939;51.426;6.972;2023-06-10T17:11:36;7.73;;;5.10;;
1877;SDS011;939;51.426;6.972;2023-06-10T17:14:03;5.37;;;4.03;;
1877;SDS011;939;51.426;6.972;2023-06-10T17:16:30;7.10;;;4.13;;
1877;SDS011;939;51.426;6.972;2023-06-10T17:18:57;6.80;;;4.90;;
1877;SDS011;939;51.426;6.972;2023-06-10T17:21:24;5.67;;;3.90;;
1877;SDS011;939;51.426;6.972;2023-06-10T17:23:52;6.30;;;4.60;;
1877;SDS011;939;51.426;6.972;2023-06-10T17:26:20;7.03;;;4.73;;
1877;SDS011;939;51.426;6.972;2023-06-10T17:28:47;8.30;;;5.60;;
1877;SDS011;939;51.426;6.972;2023-06-10T17:31:14;6.43;;;4.50;;
1877;SDS011;939;51.426;6.972;2023-06-10T17:33:40;8.67;;;6.07;;
1877;SDS011;939;51.426;6.972;2023-06-10T17:36:07;4.93;;;4.43;;
1877;SDS011;939;51.426;6.972;2023-06-10T17:38:34;9.97;;;5.10;;
1877;SDS011;939;51.426;6.972;2023-06-10T17:41:01;7.13;;;5.30;;
1877;SDS011;939;51.426;6.972;2023-06-10T17:43:29;6.00;;;4.93;;
1877;SDS011;939;51.426;6.972;2023-06-10T17:45:56;5.93;;;4.00;;
1877;SDS011;939;51.426;6.972;2023-06-10T17:48:23;5.83;;;4.30;;
1877;SDS011;939;51.426;6.972;2023-06-10T17:50:50;7.83;;;3.73;;
1877;SDS011;939;51.426;6.972;2023-06-10T17:53:17;6.20;;;4.63;;
1877;SDS011;939;51.426;6.972;2023-06-10T17:55:44;6.53;;;4.60;;
1877;SDS011;939;51.426;6.972;2023-06-10T17:58:10;5.37;;;3.90;;
1877;SDS011;939;51.426;6.972;2023-06-10T18:00:38;7.73;;;4.27;;
1877;SDS011;939;51.426;6.972;2023-06-10T18:03:06;4.20;;;3.57;;
1877;SDS011;939;51.426;6.972;2023-06-10T18:05:33;7.50;;;3.87;;
1877;SDS011;939;51.426;6.972;2023-06-10T18:08:00;8.27;;;4.50;;
1877;SDS011;939;51.426;6.972;2023-06-10T18:10:27;4.30;;;3.67;;
1877;SDS011;939;51.426;6.972;2023-06-10T18:12:54;4.57;;;3.43;;
1877;SDS011;939;51.426;6.972;2023-06-10T18:15:22;4.40;;;3.50;;
1877;SDS011;939;51.426;6.972;2023-06-10T18:17:50;8.90;;;3.70;;
1877;SDS011;939;51.426;6.972;2023-06-10T18:20:17;5.60;;;4.80;;
1877;SDS011;939;51.426;6.972;2023-06-10T18:22:44;6.40;;;4.80;;
1877;SDS011;939;51.426;6.972;2023-06-10T18:25:10;4.63;;;3.53;;
1877;SDS011;939;51.426;6.972;2023-06-10T18:27:37;5.47;;;3.90;;
1877;SDS011;939;51.426;6.972;2023-06-10T18:30:05;7.33;;;4.23;;
1877;SDS011;939;51.426;6.972;2023-06-10T18:32:32;6.73;;;5.20;;
1877;SDS011;939;51.426;6.972;2023-06-10T18:35:00;3.90;;;3.60;;
1877;SDS011;939;51.426;6.972;2023-06-10T18:37:27;4.50;;;3.87;;
1877;SDS011;939;51.426;6.972;2023-06-10T18:39:55;7.20;;;4.30;;
1877;SDS011;939;51.426;6.972;2023-06-10T18:42:22;6.53;;;4.27;;
1877;SDS011;939;51.426;6.972;2023-06-10T18:44:48;4.43;;;3.73;;
1877;SDS011;939;51.426;6.972;2023-06-10T18:47:15;6.43;;;4.00;;
1877;SDS011;939;51.426;6.972;2023-06-10T18:49:43;7.97;;;4.43;;
1877;SDS011;939;51.426;6.972;2023-06-10T18:52:11;6.97;;;4.70;;
1877;SDS011;939;51.426;6.972;2023-06-10T18:54:38;4.90;;;3.40;;
1877;SDS011;939;51.426;6.972;2023-06-10T18:57:06;5.93;;;3.70;;
1877;SDS011;939;51.426;6.972;2023-06-10T18:59:33;5.60;;;4.43;;
1877;SDS011;939;51.426;6.972;2023-06-10T19:02:00;6.20;;;5.63;;
1877;SDS011;939;51.426;6.972;2023-06-10T19:04:26;5.70;;;4.70;;
1877;SDS011;939;51.426;6.972;2023-06-10T19:06:53;4.17;;;3.87;;
1877;SDS011;939;51.426;6.972;2023-06-10T19:09:22;7.47;;;4.73;;
1877;SDS011;939;51.426;6.972;2023-06-10T19:11:48;7.50;;;5.40;;
1877;SDS011;939;51.426;6.972;2023-06-10T19:14:15;5.77;;;4.40;;
1877;SDS011;939;51.426;6.972;2023-06-10T19:16:42;9.37;;;4.63;;
1877;SDS011;939;51.426;6.972;2023-06-10T19:19:09;6.77;;;4.20;;
1877;SDS011;939;51.426;6.972;2023-06-10T19:21:36;4.57;;;4.17;;
1877;SDS011;939;51.426;6.972;2023-06-10T19:24:03;5.83;;;4.30;;
1877;SDS011;939;51.426;6.972;2023-06-10T19:26:32;5.30;;;4.30;;
1877;SDS011;939;51.426;6.972;2023-06-10T19:29:00;19.90;;;5.17;;
1877;SDS011;939;51.426;6.972;2023-06-10T19:31:27;7.40;;;4.90;;
1877;SDS011;939;51.426;6.972;2023-06-10T19:33:54;7.50;;;4.63;;
1877;SDS011;939;51.426;6.972;2023-06-10T19:36:20;7.60;;;4.30;;
1877;SDS011;939;51.426;6.972;2023-06-10T19:38:47;6.77;;;4.67;;
1877;SDS011;939;51.426;6.972;2023-06-10T19:41:15;7.60;;;5.23;;
1877;SDS011;939;51.426;6.972;2023-06-10T19:43:44;5.27;;;4.00;;
1877;SDS011;939;51.426;6.972;2023-06-10T19:46:11;4.70;;;3.10;;
1877;SDS011;939;51.426;6.972;2023-06-10T19:48:45;3.37;;;3.00;;
1877;SDS011;939;51.426;6.972;2023-06-10T19:51:12;4.40;;;3.73;;
1877;SDS011;939;51.426;6.972;2023-06-10T19:53:42;4.63;;;3.40;;
1877;SDS011;939;51.426;6.972;2023-06-10T19:56:09;7.10;;;4.03;;
1877;SDS011;939;51.426;6.972;2023-06-10T19:58:37;5.30;;;3.93;;
1877;SDS011;939;51.426;6.972;2023-06-10T20:01:05;6.27;;;4.30;;
1877;SDS011;939;51.426;6.972;2023-06-10T20:03:32;8.27;;;4.63;;
1877;SDS011;939;51.426;6.972;2023-06-10T20:05:59;5.87;;;3.47;;
1877;SDS011;939;51.426;6.972;2023-06-10T20:08:26;7.13;;;5.00;;
1877;SDS011;939;51.426;6.972;2023-06-10T20:10:53;6.10;;;4.17;;
1877;SDS011;939;51.426;6.972;2023-06-10T20:13:20;4.80;;;3.93;;
1877;SDS011;939;51.426;6.972;2023-06-10T20:15:47;5.57;;;3.93;;
1877;SDS011;939;51.426;6.972;2023-06-10T20:18:16;5.87;;;4.40;;
1877;SDS011;939;51.426;6.972;2023-06-10T20:20:43;5.20;;;4.30;;
1877;SDS011;939;51.426;6.972;2023-06-10T20:23:11;7.17;;;4.67;;
1877;SDS011;939;51.426;6.972;2023-06-10T20:25:39;4.60;;;4.10;;
1877;SDS011;939;51.426;6.972;2023-06-10T20:28:06;7.63;;;4.37;;
1877;SDS011;939;51.426;6.972;2023-06-10T20:30:33;4.27;;;3.73;;
1877;SDS011;939;51.426;6.972;2023-06-10T20:33:02;5.30;;;4.70;;
